Time;durP1;ratioP1;P1;durP2;ratioP2;P2;SDS_P1;SDS_P2;PMS_P1;PMS_P2;Temp;Humidity;BMP_temperature;BMP_pressure;BME280_temperature;BME280_humidity;BME280_pressure;Samples;Min_cycle;Max_cycle;Signal;HPM_P1;HPM_P2
2021/10/31 00:02:13;;;;;;;44.05;27.48;;;;;;;-139.48;100.00;61774.03;5033905;28;20462;-72
2021/10/31 00:04:57;;;;;;;44.47;27.67;;;;;;;-139.48;100.00;61774.03;5019138;28;20131;-71
2021/10/31 00:07:41;;;;;;;44.53;26.88;;;;;;;-139.48;100.00;61774.03;5004992;28;20052;-72
2021/10/31 00:10:25;;;;;;;45.33;27.38;;;;;;;-139.48;100.00;61774.03;5034160;28;20053;-72
2021/10/31 00:13:10;;;;;;;;;;;;;;;-139.48;100.00;61774.03;5034335;28;20429;-69
2021/10/31 00:15:54;;;;;;;43.88;26.27;;;;;;;-139.48;100.00;61774.03;5004904;28;20346;-72
2021/10/31 00:18:38;;;;;;;41.47;26.65;;;;;;;-139.48;100.00;61774.03;5004835;28;20133;-72
2021/10/31 00:21:25;;;;;;;38.67;25.90;;;;;;;-139.48;100.00;61774.03;5018494;28;20103;-71
2021/10/31 00:24:09;;;;;;;37.75;22.70;;;;;;;-139.48;100.00;61774.03;5019113;28;20056;-70
2021/10/31 00:26:53;;;;;;;45.20;26.42;;;;;;;-139.48;100.00;61774.03;5018783;28;20497;-72
2021/10/31 00:29:37;;;;;;;41.40;27.08;;;;;;;-139.48;100.00;61774.03;5018614;28;20107;-71
2021/10/31 00:32:21;;;;;;;39.40;26.08;;;;;;;-139.48;100.00;61774.03;5018342;28;20110;-71
2021/10/31 00:35:05;;;;;;;49.08;29.10;;;;;;;-139.48;100.00;61774.03;5018583;28;20044;-71
2021/10/31 00:37:49;;;;;;;40.35;25.55;;;;;;;-139.48;100.00;61774.03;5018363;28;20470;-71
2021/10/31 00:40:33;;;;;;;32.03;22.55;;;;;;;-139.48;100.00;61774.03;5018486;28;20088;-71
2021/10/31 00:43:17;;;;;;;38.08;24.02;;;;;;;-139.48;100.00;61774.03;5018522;28;20067;-72
2021/10/31 00:46:01;;;;;;;44.75;23.75;;;;;;;-139.48;100.00;61774.03;5018512;28;20052;-72
2021/10/31 00:48:45;;;;;;;32.60;23.00;;;;;;;-139.48;100.00;61774.03;5018190;28;20095;-71
2021/10/31 00:51:29;;;;;;;40.88;25.02;;;;;;;-139.48;100.00;61774.03;5018089;28;20506;-70
2021/10/31 00:54:13;;;;;;;41.08;23.48;;;;;;;-139.48;100.00;61774.03;5018140;28;20103;-71
2021/10/31 00:56:57;;;;;;;43.47;28.02;;;;;;;-139.48;100.00;61774.03;5018404;28;20500;-71
2021/10/31 00:59:41;;;;;;;52.10;31.88;;;;;;;-139.48;100.00;61774.03;5017971;28;20140;-72
2021/10/31 01:02:26;;;;;;;48.92;29.00;;;;;;;-139.48;100.00;61774.03;5017968;28;20056;-71
2021/10/31 01:05:13;;;;;;;44.15;26.85;;;;;;;-139.48;100.00;61774.03;5018440;28;20065;-72
2021/10/31 01:08:15;;;;;;;50.88;31.42;;;;;;;-139.48;100.00;61774.03;5018587;28;20056;-72
2021/10/31 01:11:05;;;;;;;40.58;25.90;;;;;;;-139.48;100.00;61774.03;5018685;28;20453;-72
2021/10/31 01:14:22;;;;;;;39.22;24.48;;;;;;;-139.48;100.00;61774.03;5033191;28;20099;-71
2021/10/31 01:17:08;;;;;;;36.92;24.15;;;;;;;-139.48;100.00;61774.03;5032849;28;20080;-70
2021/10/31 01:20:15;;;;;;;34.47;22.45;;;;;;;-139.48;100.00;61774.03;5033036;28;20111;-70
2021/10/31 01:23:37;;;;;;;34.08;23.20;;;;;;;-139.48;100.00;61774.03;5018250;28;20078;-72
2021/10/31 01:26:41;;;;;;;43.95;28.08;;;;;;;-139.48;100.00;61774.03;5017969;28;20116;-71
2021/10/31 01:29:37;;;;;;;41.78;25.10;;;;;;;-139.48;100.00;61774.03;5004090;28;20103;-72
2021/10/31 01:32:43;;;;;;;50.55;27.33;;;;;;;-139.48;100.00;61774.03;5032722;28;20095;-72
2021/10/31 01:35:52;;;;;;;55.05;29.23;;;;;;;-139.48;100.00;61774.03;5032673;28;20048;-72
2021/10/31 01:38:39;;;;;;;43.60;26.45;;;;;;;-139.48;100.00;61774.03;5033107;28;20045;-71
2021/10/31 01:42:07;;;;;;;46.72;27.90;;;;;;;-139.48;100.00;61774.03;5032858;28;20133;-71
2021/10/31 01:44:57;;;;;;;47.95;28.58;;;;;;;-139.48;100.00;61774.03;5027470;28;20099;-71
2021/10/31 01:48:07;;;;;;;36.25;23.73;;;;;;;-139.48;100.00;61774.03;5032846;28;20465;-71
2021/10/31 01:50:56;;;;;;;30.42;20.15;;;;;;;-139.48;100.00;61774.03;5017821;28;20052;-71
2021/10/31 01:54:05;;;;;;;41.63;24.67;;;;;;;-139.48;100.00;61774.03;5003861;28;20121;-70
2021/10/31 01:56:51;;;;;;;29.77;21.48;;;;;;;-139.48;100.00;61774.03;5004201;28;20510;-71
2021/10/31 01:59:46;;;;;;;29.48;20.52;;;;;;;-139.48;100.00;61774.03;5003791;28;20065;-71
2021/10/31 02:02:33;;;;;;;31.05;19.48;;;;;;;-139.48;100.00;61774.03;5021301;28;20502;-71
2021/10/31 02:05:20;;;;;;;26.73;18.65;;;;;;;-139.48;100.00;61774.03;5021332;28;20102;-71
2021/10/31 02:08:08;;;;;;;44.60;24.83;;;;;;;-139.48;100.00;61774.03;5021323;28;20513;-71
2021/10/31 02:10:52;;;;;;;33.40;23.02;;;;;;;-139.48;100.00;61774.03;5007370;28;20052;-71
2021/10/31 02:13:37;;;;;;;34.05;21.55;;;;;;;-139.48;100.00;61774.03;5020922;28;20095;-71
2021/10/31 02:16:21;;;;;;;39.95;25.90;;;;;;;-139.48;100.00;61774.03;5006924;28;20052;-71
2021/10/31 02:19:08;;;;;;;35.15;22.42;;;;;;;-139.48;100.00;61774.03;5006803;28;20099;-71
2021/10/31 02:21:57;;;;;;;34.92;22.27;;;;;;;-139.48;100.00;61774.03;5021093;28;20514;-71
2021/10/31 02:24:42;;;;;;;42.45;26.58;;;;;;;-139.48;100.00;61774.03;5007210;28;20087;-71
2021/10/31 02:27:30;;;;;;;42.55;28.25;;;;;;;-139.48;100.00;61774.03;5020940;28;20146;-71
2021/10/31 02:30:15;;;;;;;43.25;26.00;;;;;;;-139.48;100.00;61774.03;5035742;28;20414;-71
2021/10/31 02:32:59;;;;;;;40.33;23.85;;;;;;;-139.48;100.00;61774.03;5020851;28;20051;-71
2021/10/31 02:35:44;;;;;;;40.35;25.90;;;;;;;-139.48;100.00;61774.03;5020802;28;20058;-71
2021/10/31 02:38:28;;;;;;;32.63;22.33;;;;;;;-139.48;100.00;61774.03;5007028;28;20043;-71
2021/10/31 02:41:12;;;;;;;32.90;21.15;;;;;;;-139.48;100.00;61774.03;5020634;28;20072;-71
2021/10/31 02:43:56;;;;;;;40.30;23.23;;;;;;;-139.48;100.00;61774.03;5020401;28;20123;-71
2021/10/31 02:46:40;;;;;;;;;;;;;;;-139.48;100.00;61774.03;5035974;28;20481;-71
2021/10/31 02:49:24;;;;;;;30.42;20.67;;;;;;;-139.48;100.00;61774.03;5020307;28;20301;-71
2021/10/31 02:52:16;;;;;;;28.00;19.25;;;;;;;-139.48;100.00;61774.03;5020454;28;20095;-71
2021/10/31 02:55:10;;;;;;;27.67;19.38;;;;;;;-139.48;100.00;61774.03;5020390;28;20406;-71
2021/10/31 02:57:57;;;;;;;39.70;21.13;;;;;;;-139.48;100.00;61774.03;5006223;28;20045;-71
2021/10/31 03:00:41;;;;;;;28.50;20.00;;;;;;;-139.48;100.00;61774.03;5019932;28;20051;-71
2021/10/31 03:03:28;;;;;;;27.10;18.67;;;;;;;-139.48;100.00;61774.03;5006411;28;20120;-71
2021/10/31 03:06:12;;;;;;;31.88;20.27;;;;;;;-139.48;100.00;61774.03;5020148;28;20056;-71
2021/10/31 03:08:56;;;;;;;24.25;17.67;;;;;;;-139.48;100.00;61774.03;5006208;28;20414;-71
2021/10/31 03:11:40;;;;;;;44.00;26.08;;;;;;;-139.48;100.00;61774.03;5020022;28;20398;-71
2021/10/31 03:14:24;;;;;;;33.55;22.23;;;;;;;-139.48;100.00;61774.03;5035252;28;20059;-70
2021/10/31 03:17:09;;;;;;;39.33;22.85;;;;;;;-139.48;100.00;61774.03;5034976;28;20047;-71
2021/10/31 03:19:52;;;;;;;49.28;29.02;;;;;;;-139.48;100.00;61774.03;5019739;28;20049;-71
2021/10/31 03:22:36;;;;;;;43.78;27.90;;;;;;;-139.48;100.00;61774.03;5019783;28;20056;-71
2021/10/31 03:25:20;;;;;;;39.88;24.15;;;;;;;-139.48;100.00;61774.03;5034815;28;20052;-71
2021/10/31 03:28:04;;;;;;;35.50;23.08;;;;;;;-139.48;100.00;61774.03;5019469;28;20103;-71
2021/10/31 03:30:48;;;;;;;37.72;24.10;;;;;;;-139.48;100.00;61774.03;5019451;28;20107;-71
2021/10/31 03:33:32;;;;;;;30.80;21.17;;;;;;;-139.48;100.00;61774.03;5019673;28;20126;-71
2021/10/31 03:36:16;;;;;;;27.38;19.80;;;;;;;-139.48;100.00;61774.03;5005840;28;20044;-70
2021/10/31 03:39:00;;;;;;;37.38;25.90;;;;;;;-139.48;100.00;61774.03;5005352;28;20055;-71
2021/10/31 03:41:45;;;;;;;33.13;21.80;;;;;;;-139.48;100.00;61774.03;5019423;28;20052;-71
2021/10/31 03:44:35;;;;;;;28.70;19.02;;;;;;;-139.48;100.00;61774.03;5034368;28;20137;-71
2021/10/31 03:47:20;;;;;;;32.40;20.13;;;;;;;-139.48;100.00;61774.03;5006450;28;20510;-71
2021/10/31 03:50:05;;;;;;;33.00;20.83;;;;;;;-139.48;100.00;61774.03;5019282;28;20057;-71
2021/10/31 03:52:49;;;;;;;33.75;21.13;;;;;;;-139.48;100.00;61774.03;5019210;28;20049;-71
2021/10/31 03:55:33;;;;;;;35.47;23.52;;;;;;;-139.48;100.00;61774.03;5019230;28;20052;-70
2021/10/31 03:58:17;;;;;;;35.05;22.85;;;;;;;-139.48;100.00;61774.03;5019052;28;20040;-71
2021/10/31 04:01:01;;;;;;;29.85;20.70;;;;;;;-139.48;100.00;61774.03;5033980;28;20139;-71
2021/10/31 04:03:45;;;;;;;;;;;;;;;-139.48;100.00;61774.03;5019525;28;20047;-71
2021/10/31 04:06:30;;;;;;;33.90;19.47;;;;;;;-139.48;100.00;61774.03;5033792;28;19920;-71
2021/10/31 04:09:14;;;;;;;27.35;19.38;;;;;;;-139.48;100.00;61774.03;5019105;28;20048;-71
2021/10/31 04:11:58;;;;;;;38.17;24.30;;;;;;;-139.48;100.00;61774.03;5019004;28;20106;-71
2021/10/31 04:14:42;;;;;;;36.70;23.20;;;;;;;-139.48;100.00;61774.03;5018536;28;20048;-71
2021/10/31 04:17:26;;;;;;;31.52;20.45;;;;;;;-139.48;100.00;61774.03;5018838;28;20149;-70
2021/10/31 04:20:10;;;;;;;36.75;20.77;;;;;;;-139.48;100.00;61774.03;5018822;28;20154;-71
2021/10/31 04:22:54;;;;;;;37.08;24.73;;;;;;;-139.48;100.00;61774.03;5004244;28;20142;-71
2021/10/31 04:25:38;;;;;;;36.80;23.85;;;;;;;-139.48;100.00;61774.03;5018529;28;20118;-71
2021/10/31 04:28:24;;;;;;;31.95;21.75;;;;;;;-139.48;100.00;61774.03;5018618;28;20579;-71
2021/10/31 04:31:07;;;;;;;31.02;20.55;;;;;;;-139.48;100.00;61774.03;5018939;28;20124;-71
2021/10/31 04:33:51;;;;;;;29.92;20.23;;;;;;;-139.48;100.00;61774.03;5018360;28;20125;-70
2021/10/31 04:36:35;;;;;;;31.23;20.45;;;;;;;-139.48;100.00;61774.03;5018596;28;20111;-71
2021/10/31 04:39:20;;;;;;;33.47;20.83;;;;;;;-139.48;100.00;61774.03;5018417;28;20048;-71
2021/10/31 04:42:05;;;;;;;30.25;20.67;;;;;;;-139.48;100.00;61774.03;5018518;28;20513;-71
2021/10/31 04:44:49;;;;;;;30.55;21.38;;;;;;;-139.48;100.00;61774.03;5033195;28;20475;-71
2021/10/31 04:47:33;;;;;;;32.35;22.67;;;;;;;-139.48;100.00;61774.03;5018469;28;20132;-70
2021/10/31 04:50:17;;;;;;;35.45;21.50;;;;;;;-139.48;100.00;61774.03;5018184;28;20052;-71
2021/10/31 04:53:04;;;;;;;36.45;22.52;;;;;;;-139.48;100.00;61774.03;5018428;28;20114;-71
2021/10/31 04:55:48;;;;;;;30.63;22.00;;;;;;;-139.48;100.00;61774.03;5004522;28;20057;-71
2021/10/31 04:58:32;;;;;;;34.25;22.63;;;;;;;-139.48;100.00;61774.03;5033084;28;20132;-69
2021/10/31 05:01:16;;;;;;;37.08;23.60;;;;;;;-139.48;100.00;61774.03;5005765;28;20103;-71
2021/10/31 05:04:00;;;;;;;33.22;21.98;;;;;;;-139.48;100.00;61774.03;5018333;28;20418;-71
2021/10/31 05:06:44;;;;;;;27.58;18.88;;;;;;;-139.48;100.00;61774.03;5004432;28;20052;-70
2021/10/31 05:09:28;;;;;;;30.80;20.00;;;;;;;-139.48;100.00;61774.03;5018017;28;20124;-71
2021/10/31 05:12:12;;;;;;;26.20;19.15;;;;;;;-139.48;100.00;61774.03;5018274;28;20508;-71
2021/10/31 05:14:56;;;;;;;28.25;19.80;;;;;;;-139.48;100.00;61774.03;5018273;28;20056;-71
2021/10/31 05:17:41;;;;;;;29.00;19.05;;;;;;;-139.48;100.00;61774.03;5018060;28;20084;-71
2021/10/31 05:20:25;;;;;;;31.15;20.77;;;;;;;-139.48;100.00;61774.03;5004082;28;20115;-71
2021/10/31 05:23:09;;;;;;;27.75;19.42;;;;;;;-139.48;100.00;61774.03;5033151;28;20103;-71
2021/10/31 05:25:53;;;;;;;33.78;22.23;;;;;;;-139.48;100.00;61774.03;5004158;28;20088;-71
2021/10/31 05:28:37;;;;;;;30.48;21.42;;;;;;;-139.48;100.00;61774.03;5017757;28;20095;-71
2021/10/31 05:31:21;;;;;;;30.65;20.15;;;;;;;-139.48;100.00;61774.03;5033061;28;20040;-71
2021/10/31 05:34:06;;;;;;;26.98;19.55;;;;;;;-139.48;100.00;61774.03;5004186;28;20407;-71
2021/10/31 05:36:49;;;;;;;27.25;19.20;;;;;;;-139.48;100.00;61774.03;5036537;28;20094;-71
2021/10/31 05:39:33;;;;;;;26.25;18.30;;;;;;;-139.48;100.00;61774.03;5021585;28;20056;-71
2021/10/31 05:42:17;;;;;;;29.15;20.33;;;;;;;-139.48;100.00;61774.03;5021704;28;20111;-71
2021/10/31 05:45:02;;;;;;;30.23;20.45;;;;;;;-139.48;100.00;61774.03;5021672;28;20047;-71
2021/10/31 05:47:47;;;;;;;28.30;18.95;;;;;;;-139.48;100.00;61774.03;5021637;28;20044;-71
2021/10/31 05:50:31;;;;;;;32.83;18.67;;;;;;;-139.48;100.00;61774.03;5007737;28;20049;-71
2021/10/31 05:53:14;;;;;;;28.10;18.67;;;;;;;-139.48;100.00;61774.03;5007392;28;20048;-70
2021/10/31 05:55:58;;;;;;;24.85;18.73;;;;;;;-139.48;100.00;61774.03;5021288;28;20485;-71
2021/10/31 05:58:42;;;;;;;27.45;18.77;;;;;;;-139.48;100.00;61774.03;5021475;28;20103;-71
2021/10/31 06:01:26;;;;;;;21.90;16.23;;;;;;;-139.48;100.00;61774.03;5007474;28;20091;-71
2021/10/31 06:04:10;;;;;;;26.42;18.80;;;;;;;-139.48;100.00;61774.03;5007334;28;20080;-71
2021/10/31 06:06:54;;;;;;;29.48;19.17;;;;;;;-139.48;100.00;61774.03;5036579;28;20048;-71
2021/10/31 06:09:38;;;;;;;29.17;19.27;;;;;;;-139.48;100.00;61774.03;5020904;28;20462;-72
2021/10/31 06:12:23;;;;;;;31.02;20.27;;;;;;;-139.48;100.00;61774.03;5021149;28;20048;-71
2021/10/31 06:15:07;;;;;;;27.83;19.20;;;;;;;-139.48;100.00;61774.03;5007344;28;20088;-71
2021/10/31 06:17:51;;;;;;;34.50;20.98;;;;;;;-139.48;100.00;61774.03;5021113;28;20044;-71
2021/10/31 06:20:35;;;;;;;34.28;21.02;;;;;;;-139.48;100.00;61774.03;5036007;28;20550;-71
2021/10/31 06:23:19;;;;;;;27.15;18.40;;;;;;;-139.48;100.00;61774.03;5020736;28;20106;-71
2021/10/31 06:26:04;;;;;;;30.63;20.95;;;;;;;-139.48;100.00;61774.03;5020926;28;20106;-71
2021/10/31 06:28:49;;;;;;;30.10;18.40;;;;;;;-139.48;100.00;61774.03;5006935;28;20512;-71
2021/10/31 06:31:32;;;;;;;29.75;18.70;;;;;;;-139.48;100.00;61774.03;5020803;28;20083;-71
2021/10/31 06:34:16;;;;;;;22.45;16.15;;;;;;;-139.48;100.00;61774.03;5035538;28;20125;-71
2021/10/31 06:37:00;;;;;;;28.38;17.85;;;;;;;-139.48;100.00;61774.03;5006831;28;20521;-71
2021/10/31 06:39:44;;;;;;;20.08;14.55;;;;;;;-139.48;100.00;61774.03;5020462;28;20194;-70
2021/10/31 06:42:29;;;;;;;19.60;14.52;;;;;;;-139.48;100.00;61774.03;5020555;28;20052;-71
2021/10/31 06:45:14;;;;;;;24.60;16.73;;;;;;;-139.48;100.00;61774.03;5035190;28;20053;-71
2021/10/31 06:47:58;;;;;;;23.40;16.88;;;;;;;-139.48;100.00;61774.03;5006665;28;20048;-71
2021/10/31 06:50:42;;;;;;;23.55;17.52;;;;;;;-139.48;100.00;61774.03;5020459;28;20107;-71
2021/10/31 06:53:26;;;;;;;30.55;18.02;;;;;;;-139.48;100.00;61774.03;5020412;28;20402;-71
2021/10/31 06:56:11;;;;;;;24.95;17.73;;;;;;;-139.48;100.00;61774.03;5020202;28;20053;-71
2021/10/31 06:58:55;;;;;;;26.00;18.23;;;;;;;-139.48;100.00;61774.03;5006306;28;20099;-71
2021/10/31 07:01:38;;;;;;;27.15;16.73;;;;;;;-139.48;100.00;61774.03;5006342;28;20056;-70
2021/10/31 07:04:23;;;;;;;24.58;17.58;;;;;;;-139.48;100.00;61774.03;5020427;28;20099;-70
2021/10/31 07:07:07;;;;;;;20.42;15.55;;;;;;;-139.48;100.00;61774.03;5006354;28;20544;-71
2021/10/31 07:09:51;;;;;;;27.77;19.05;;;;;;;-139.48;100.00;61774.03;5020354;28;20403;-71
2021/10/31 07:12:35;;;;;;;29.30;18.50;;;;;;;-139.48;100.00;61774.03;5035054;28;20048;-71
2021/10/31 07:15:19;;;;;;;23.15;16.77;;;;;;;-139.48;100.00;61774.03;5019979;28;20103;-71
2021/10/31 07:18:04;;;;;;;23.15;16.60;;;;;;;-139.48;100.00;61774.03;5020004;28;20115;-70
2021/10/31 07:20:47;;;;;;;27.67;20.15;;;;;;;-139.48;100.00;61774.03;5019890;28;20056;-70
2021/10/31 07:23:31;;;;;;;25.35;18.92;;;;;;;-139.48;100.00;61774.03;5034630;28;20133;-70
2021/10/31 07:26:15;;;;;;;22.90;16.38;;;;;;;-139.48;100.00;61774.03;5034778;28;20502;-70
2021/10/31 07:29:00;;;;;;;25.20;17.25;;;;;;;-139.48;100.00;61774.03;5005860;28;20115;-71
2021/10/31 07:31:46;;;;;;;26.42;16.65;;;;;;;-139.48;100.00;61774.03;5019441;28;20414;-70
2021/10/31 07:34:30;;;;;;;19.35;13.98;;;;;;;-139.48;100.00;61774.03;5019791;28;20053;-70
2021/10/31 07:37:16;;;;;;;24.35;17.35;;;;;;;-139.48;100.00;61774.03;5034819;28;20096;-71
2021/10/31 07:40:00;;;;;;;17.88;13.43;;;;;;;-139.48;100.00;61774.03;5019362;28;20048;-70
2021/10/31 07:42:45;;;;;;;20.25;14.23;;;;;;;-139.48;100.00;61774.03;5005660;28;20052;-70
2021/10/31 07:45:28;;;;;;;16.65;12.73;;;;;;;-139.48;100.00;61774.03;5019504;28;20475;-71
2021/10/31 07:48:12;;;;;;;20.55;14.40;;;;;;;-139.48;100.00;61774.03;5019072;28;20425;-71
2021/10/31 07:50:56;;;;;;;19.80;14.10;;;;;;;-139.48;100.00;61774.03;5005478;28;20047;-70
2021/10/31 07:53:42;;;;;;;23.35;16.33;;;;;;;-139.48;100.00;61774.03;5019345;28;20107;-71
2021/10/31 07:56:27;;;;;;;24.55;17.63;;;;;;;-139.48;100.00;61774.03;5019235;28;20052;-71
2021/10/31 07:59:11;;;;;;;25.63;18.30;;;;;;;-139.48;100.00;61774.03;5033164;28;20494;-70
2021/10/31 08:01:55;;;;;;;30.10;20.05;;;;;;;-139.48;100.00;61774.03;5019057;28;20128;-70
2021/10/31 08:04:39;;;;;;;26.75;19.48;;;;;;;-139.48;100.00;61774.03;5004987;28;20049;-71
2021/10/31 08:07:28;;;;;;;26.50;18.25;;;;;;;-139.48;100.00;61774.03;5018813;28;20095;-71
2021/10/31 08:10:13;;;;;;;24.63;18.45;;;;;;;-139.48;100.00;61774.03;5019165;28;20134;-71
2021/10/31 08:12:56;;;;;;;23.90;17.65;;;;;;;-139.48;100.00;61774.03;5018964;28;20091;-71
2021/10/31 08:15:40;;;;;;;28.83;21.77;;;;;;;-139.48;100.00;61774.03;5018635;28;20048;-70
2021/10/31 08:18:25;;;;;;;29.33;18.30;;;;;;;-139.48;100.00;61774.03;5018550;28;20048;-71
2021/10/31 08:21:09;;;;;;;22.85;15.45;;;;;;;-139.48;100.00;61774.03;5004861;28;20119;-70
2021/10/31 08:23:53;;;;;;;21.65;15.10;;;;;;;-139.48;100.00;61774.03;5033424;28;20052;-70
2021/10/31 08:26:37;;;;;;;18.10;13.07;;;;;;;-139.48;100.00;61774.03;5018708;28;20057;-65
2021/10/31 08:29:23;;;;;;;19.38;12.90;;;;;;;-139.48;100.00;61774.03;5033467;28;20080;-70
2021/10/31 08:32:08;;;;;;;13.68;11.70;;;;;;;-139.48;100.00;61774.03;5018937;28;20044;-70
2021/10/31 08:34:53;;;;;;;15.38;11.30;;;;;;;-139.48;100.00;61774.03;5018549;28;20315;-71
2021/10/31 08:37:37;;;;;;;14.68;11.07;;;;;;;-139.48;100.00;61774.03;5018398;28;20098;-71
2021/10/31 08:40:21;;;;;;;16.63;12.43;;;;;;;-139.48;100.00;61774.03;5004371;28;20098;-71
2021/10/31 08:43:05;;;;;;;15.95;10.68;;;;;;;-139.48;100.00;61774.03;5033188;28;20044;-71
2021/10/31 08:45:49;;;;;;;10.77;9.45;;;;;;;-139.48;100.00;61774.03;5033420;28;20099;-71
2021/10/31 08:48:34;;;;;;;11.13;9.32;;;;;;;-139.48;100.00;61774.03;5018159;28;20047;-70
2021/10/31 08:51:22;;;;;;;11.82;8.50;;;;;;;-139.48;100.00;61774.03;5018301;28;20044;-71
2021/10/31 08:54:06;;;;;;;9.30;7.60;;;;;;;-139.48;100.00;61774.03;5018813;28;20146;-71
2021/10/31 08:56:50;;;;;;;11.15;7.13;;;;;;;-139.48;100.00;61774.03;5018037;28;20430;-71
2021/10/31 08:59:35;;;;;;;8.35;7.38;;;;;;;-139.48;100.00;61774.03;5017712;28;20130;-71
2021/10/31 09:02:18;;;;;;;10.88;7.25;;;;;;;-139.48;100.00;61774.03;5033239;28;20080;-72
2021/10/31 09:05:06;;;;;;;;;;;;;;;-139.48;100.00;61774.03;5018414;28;20069;-72
2021/10/31 09:07:50;;;;;;;7.55;6.82;;;;;;;-139.48;100.00;61774.03;5018248;28;19920;-72
2021/10/31 09:10:35;;;;;;;7.80;6.97;;;;;;;-139.48;100.00;61774.03;5021759;28;20501;-71
2021/10/31 09:13:20;;;;;;;10.65;7.05;;;;;;;-139.48;100.00;61774.03;5008375;28;20410;-71
2021/10/31 09:16:04;;;;;;;7.70;6.78;;;;;;;-139.48;100.00;61774.03;5022328;28;20045;-71
2021/10/31 09:18:48;;;;;;;7.90;6.40;;;;;;;-139.48;100.00;61774.03;5021858;28;20052;-71
2021/10/31 09:21:32;;;;;;;9.52;6.60;;;;;;;-139.48;100.00;61774.03;5007895;28;20056;-71
2021/10/31 09:24:16;;;;;;;;;;;;;;;-139.48;100.00;61774.03;5022310;28;20164;-72
2021/10/31 09:27:00;;;;;;;8.88;6.50;;;;;;;-139.48;100.00;61774.03;5008230;28;19919;-71
2021/10/31 09:29:44;;;;;;;11.20;7.25;;;;;;;-139.48;100.00;61774.03;5021739;28;20126;-71
2021/10/31 09:32:31;;;;;;;;;;;;;;;-139.48;100.00;61774.03;5008214;28;20048;-72
2021/10/31 09:35:17;;;;;;;8.82;6.50;;;;;;;-139.48;100.00;61774.03;5008043;28;20020;-72
2021/10/31 09:38:04;;;;;;;8.88;7.00;;;;;;;-139.48;100.00;61774.03;5007946;28;20052;-71
2021/10/31 09:40:48;;;;;;;10.13;7.88;;;;;;;-139.48;100.00;61774.03;5008223;28;20107;-71
2021/10/31 09:43:43;;;;;;;9.05;7.40;;;;;;;-139.48;100.00;61774.03;5021741;28;20142;-71
2021/10/31 09:46:27;;;;;;;9.75;7.35;;;;;;;-139.48;100.00;61774.03;5023011;28;20072;-71
2021/10/31 09:49:13;;;;;;;14.02;7.20;;;;;;;-139.48;100.00;61774.03;5036347;28;20053;-71
2021/10/31 09:51:57;;;;;;;9.57;7.30;;;;;;;-139.48;100.00;61774.03;5021748;28;20068;-71
2021/10/31 09:54:41;;;;;;;8.35;6.65;;;;;;;-139.48;100.00;61774.03;5021189;28;20044;-71
2021/10/31 09:57:25;;;;;;;7.20;6.50;;;;;;;-139.48;100.00;61774.03;5020704;28;20076;-70
2021/10/31 10:00:10;;;;;;;8.02;6.82;;;;;;;-139.48;100.00;61774.03;5020664;28;20053;-71
2021/10/31 10:05:44;;;;;;;9.63;6.90;;;;;;;-139.48;100.00;61774.03;5021803;28;20049;-71
2021/10/31 10:08:28;;;;;;;10.05;6.95;;;;;;;-139.48;100.00;61774.03;5006668;28;20048;-71
2021/10/31 10:11:18;;;;;;;7.80;6.75;;;;;;;-139.48;100.00;61774.03;5006789;28;20048;-70
2021/10/31 10:14:33;;;;;;;13.07;7.07;;;;;;;-139.48;100.00;61774.03;5035601;28;20084;-71
2021/10/31 10:17:17;;;;;;;12.50;7.78;;;;;;;-139.48;100.00;61774.03;5006290;28;20119;-70
2021/10/31 10:20:00;;;;;;;9.55;7.05;;;;;;;-139.48;100.00;61774.03;5035127;28;20060;-71
2021/10/31 10:22:44;;;;;;;;;;;;;;;-139.48;100.00;61774.03;5020196;28;20099;-71
2021/10/31 10:25:39;;;;;;;7.88;6.70;;;;;;;-139.48;100.00;61774.03;5020129;28;19959;-71
2021/10/31 10:28:25;;;;;;;7.35;6.65;;;;;;;-139.48;100.00;61774.03;5006933;28;20045;-71
2021/10/31 10:31:23;;;;;;;9.98;6.43;;;;;;;-139.48;100.00;61774.03;5020812;28;20095;-71
2021/10/31 10:34:08;;;;;;;7.50;6.00;;;;;;;-139.48;100.00;61774.03;5020471;28;20175;-72
2021/10/31 10:36:56;;;;;;;9.27;5.90;;;;;;;-139.48;100.00;61774.03;5019877;28;20520;-70
2021/10/31 10:39:41;;;;;;;7.03;5.40;;;;;;;-139.48;100.00;61774.03;5019910;28;20064;-71
2021/10/31 10:42:28;;;;;;;7.03;6.32;;;;;;;-139.48;100.00;61774.03;5019578;28;20055;-71
2021/10/31 10:45:16;;;;;;;9.93;6.80;;;;;;;-139.48;100.00;61774.03;5020045;28;20501;-71
2021/10/31 10:48:03;;;;;;;7.80;5.97;;;;;;;-139.48;100.00;61774.03;5020177;28;20511;-71
2021/10/31 10:50:47;;;;;;;8.65;6.28;;;;;;;-139.48;100.00;61774.03;5019693;28;20094;-71
2021/10/31 10:53:31;;;;;;;9.98;5.95;;;;;;;-139.48;100.00;61774.03;5034682;28;20052;-71
2021/10/31 10:56:15;;;;;;;8.77;5.40;;;;;;;-139.48;100.00;61774.03;5034642;28;20051;-71
2021/10/31 10:59:00;;;;;;;8.43;6.07;;;;;;;-139.48;100.00;61774.03;5019196;28;20056;-71
2021/10/31 11:01:45;;;;;;;10.18;6.30;;;;;;;-139.48;100.00;61774.03;5019364;28;20099;-72
2021/10/31 11:04:32;;;;;;;7.30;6.50;;;;;;;-139.48;100.00;61774.03;5019559;28;20052;-71
2021/10/31 11:07:16;;;;;;;8.05;5.57;;;;;;;-139.48;100.00;61774.03;5034764;28;20498;-71
2021/10/31 11:10:01;;;;;;;6.38;5.40;;;;;;;-139.48;100.00;61774.03;5019434;28;20048;-71
2021/10/31 11:12:48;;;;;;;6.45;5.28;;;;;;;-139.48;100.00;61774.03;5019421;28;20040;-71
2021/10/31 11:15:33;;;;;;;7.90;5.30;;;;;;;-139.48;100.00;61774.03;5005295;28;20521;-71
2021/10/31 11:18:17;;;;;;;7.45;5.43;;;;;;;-139.48;100.00;61774.03;5018995;28;20095;-71
2021/10/31 11:21:01;;;;;;;6.30;5.45;;;;;;;-139.48;100.00;61774.03;5018958;28;20426;-71
2021/10/31 11:23:47;;;;;;;5.68;5.07;;;;;;;-139.48;100.00;61774.03;5019206;28;20123;-71
2021/10/31 11:26:35;;;;;;;7.00;4.95;;;;;;;-139.48;100.00;61774.03;5005291;28;20056;-71
2021/10/31 11:29:19;;;;;;;5.07;4.40;;;;;;;-139.48;100.00;61774.03;5018901;28;20154;-71
2021/10/31 11:32:04;;;;;;;5.82;4.40;;;;;;;-139.48;100.00;61774.03;5020021;28;20509;-70
2021/10/31 11:34:51;;;;;;;6.70;4.25;;;;;;;-139.48;100.00;61774.03;5033687;28;20107;-71
2021/10/31 11:37:43;;;;;;;4.68;4.20;;;;;;;-139.48;100.00;61774.03;5004849;28;20110;-71
2021/10/31 11:40:30;;;;;;;6.20;4.00;;;;;;;-139.48;100.00;61774.03;5019162;28;20048;-71
2021/10/31 11:43:21;;;;;;;6.40;4.25;;;;;;;-139.48;100.00;61774.03;5018908;28;20124;-71
2021/10/31 11:46:06;;;;;;;19.13;4.28;;;;;;;-139.48;100.00;61774.03;5004720;28;20414;-71
2021/10/31 11:49:00;;;;;;;4.22;3.83;;;;;;;-139.48;100.00;61774.03;5018606;28;20575;-72
2021/10/31 11:51:46;;;;;;;;;;;;;;;-139.48;100.00;61774.03;5019126;28;20053;-71
2021/10/31 11:54:30;;;;;;;5.32;3.50;;;;;;;-139.48;100.00;61774.03;5018804;28;19970;-71
2021/10/31 11:57:25;;;;;;;5.07;3.22;;;;;;;-139.48;100.00;61774.03;5004496;28;20121;-71
2021/10/31 12:00:16;;;;;;;5.70;3.15;;;;;;;-139.48;100.00;61774.03;5018250;28;20056;-72
2021/10/31 12:03:07;;;;;;;4.60;3.30;;;;;;;-139.48;100.00;61774.03;5018272;28;20049;-72
2021/10/31 12:05:52;;;;;;;5.03;3.63;;;;;;;-139.48;100.00;61774.03;5019169;28;20052;-72
2021/10/31 12:08:47;;;;;;;4.13;3.53;;;;;;;-139.48;100.00;61774.03;5018328;28;20424;-68
2021/10/31 12:11:40;;;;;;;4.00;3.13;;;;;;;-139.48;100.00;61774.03;5018331;28;20116;-70
2021/10/31 12:14:51;;;;;;;3.23;2.93;;;;;;;-139.48;100.00;61774.03;5033585;28;20108;-69
2021/10/31 12:18:01;;;;;;;4.60;3.20;;;;;;;-139.48;100.00;61774.03;5018236;28;20258;-70
2021/10/31 12:20:51;;;;;;;2.78;2.45;;;;;;;-139.48;100.00;61774.03;5017951;28;20152;-70
2021/10/31 12:23:51;;;;;;;3.40;2.42;;;;;;;-139.48;100.00;61774.03;5004115;28;20052;-70
2021/10/31 12:26:40;;;;;;;2.88;2.58;;;;;;;-139.48;100.00;61774.03;5018152;28;20129;-71
2021/10/31 12:29:29;;;;;;;3.83;2.47;;;;;;;-139.48;100.00;61774.03;5032870;28;20048;-71